Time;durP1;ratioP1;P1;durP2;ratioP2;P2;SDS_P1;SDS_P2;PMS_P1;PMS_P2;Temp;Humidity;BMP_temperature;BMP_pressure;BME280_temperature;BME280_humidity;BME280_pressure;Samples;Min_cycle;Max_cycle;Signal;HPM_P1;HPM_P2
2022/09/21 00:02:24;;;;;;;293.50;134.83;;;;;;;;;;4986208;28;20396;-56
2022/09/21 00:04:50;;;;;;;307.60;138.30;;;;;;;;;;4990915;28;20225;-55
2022/09/21 00:07:16;;;;;;;321.77;143.83;;;;;;;;;;4988702;28;20661;-55
2022/09/21 00:09:41;;;;;;;299.90;136.67;;;;;;;;;;4986953;28;20177;-55
2022/09/21 00:12:08;;;;;;;347.37;151.70;;;;;;;;;;4983723;28;20426;-55
2022/09/21 00:14:34;;;;;;;308.13;139.20;;;;;;;;;;4983844;28;20212;-55
2022/09/21 00:17:00;;;;;;;311.60;139.77;;;;;;;;;;4983703;28;20185;-55
2022/09/21 00:19:26;;;;;;;315.63;141.77;;;;;;;;;;4986032;28;20193;-55
2022/09/21 00:21:56;;;;;;;343.23;151.00;;;;;;;;;;4981104;28;20177;-55
2022/09/21 00:24:22;;;;;;;415.30;181.50;;;;;;;;;;4976841;28;20302;-55
2022/09/21 00:26:48;;;;;;;336.43;148.90;;;;;;;;;;4985294;28;21762;-55
2022/09/21 00:29:14;;;;;;;330.50;149.43;;;;;;;;;;4988206;28;20654;-55
2022/09/21 00:31:39;;;;;;;293.20;133.93;;;;;;;;;;4985515;28;20338;-55
2022/09/21 00:34:06;;;;;;;306.77;135.97;;;;;;;;;;4988769;28;20918;-55
2022/09/21 00:36:32;;;;;;;295.30;134.43;;;;;;;;;;4983197;28;20665;-55
2022/09/21 00:39:00;;;;;;;313.67;140.83;;;;;;;;;;4990835;28;20861;-55
2022/09/21 00:41:26;;;;;;;363.37;160.33;;;;;;;;;;4983802;28;20655;-55
2022/09/21 00:44:11;;;;;;;500.80;219.37;;;;;;;;;;4975647;28;20223;-55
2022/09/21 00:46:38;;;;;;;301.17;137.80;;;;;;;;;;4981463;28;20189;-55
2022/09/21 00:49:04;;;;;;;281.83;131.37;;;;;;;;;;4993027;28;20740;-55
2022/09/21 00:51:30;;;;;;;285.40;132.30;;;;;;;;;;4989957;28;20498;-55
2022/09/21 00:54:02;;;;;;;327.50;148.70;;;;;;;;;;4988324;28;20189;-55
2022/09/21 00:56:29;;;;;;;255.73;122.10;;;;;;;;;;4981547;28;20221;-56
2022/09/21 00:58:55;;;;;;;278.17;128.30;;;;;;;;;;4984779;28;20292;-55
2022/09/21 01:01:23;;;;;;;339.23;149.53;;;;;;;;;;4981172;28;20197;-55
2022/09/21 01:03:50;;;;;;;328.13;144.37;;;;;;;;;;4987151;28;20241;-55
2022/09/21 01:06:17;;;;;;;258.03;121.73;;;;;;;;;;4985636;28;20193;-55
2022/09/21 01:08:44;;;;;;;268.90;127.10;;;;;;;;;;4986662;28;20594;-55
2022/09/21 01:11:24;;;;;;;295.57;135.00;;;;;;;;;;4984614;28;20204;-55
2022/09/21 01:14:02;;;;;;;286.67;131.33;;;;;;;;;;4983759;28;20587;-55
2022/09/21 01:16:48;;;;;;;320.60;140.37;;;;;;;;;;4977419;28;20231;-55
2022/09/21 01:19:34;;;;;;;311.10;141.63;;;;;;;;;;4979413;28;20193;-56
2022/09/21 01:22:10;;;;;;;323.73;145.83;;;;;;;;;;4990086;28;20201;-55
2022/09/21 01:24:36;;;;;;;300.73;135.77;;;;;;;;;;4984724;28;20575;-55
2022/09/21 01:27:19;;;;;;;269.93;125.73;;;;;;;;;;4982894;28;20642;-55
2022/09/21 01:29:51;;;;;;;270.90;126.70;;;;;;;;;;4984299;28;20388;-55
2022/09/21 01:32:26;;;;;;;330.43;149.20;;;;;;;;;;4982401;28;20308;-55
2022/09/21 01:35:02;;;;;;;305.33;138.13;;;;;;;;;;4981799;28;20634;-55
2022/09/21 01:37:39;;;;;;;282.03;129.23;;;;;;;;;;4986242;28;20185;-55
2022/09/21 01:40:09;;;;;;;283.67;132.60;;;;;;;;;;4974687;28;20580;-55
2022/09/21 01:42:37;;;;;;;319.63;141.87;;;;;;;;;;4984024;28;20733;-55
2022/09/21 01:45:05;;;;;;;289.17;132.73;;;;;;;;;;4981497;28;20208;-55
2022/09/21 01:47:32;;;;;;;305.90;135.87;;;;;;;;;;4983382;28;20176;-55
2022/09/21 01:49:59;;;;;;;322.83;145.80;;;;;;;;;;4983873;28;20186;-55
2022/09/21 01:52:29;;;;;;;318.20;139.03;;;;;;;;;;4987755;28;20177;-55
2022/09/21 01:55:00;;;;;;;287.27;132.90;;;;;;;;;;4983983;28;20313;-55
2022/09/21 01:57:31;;;;;;;335.63;150.50;;;;;;;;;;4981811;28;20537;-55
2022/09/21 01:59:57;;;;;;;286.23;130.93;;;;;;;;;;4980549;28;20197;-55
2022/09/21 02:02:34;;;;;;;285.47;129.20;;;;;;;;;;4986869;28;20193;-55
2022/09/21 02:05:01;;;;;;;270.13;124.50;;;;;;;;;;4991233;28;20212;-55
2022/09/21 02:07:27;;;;;;;279.47;127.40;;;;;;;;;;4976473;28;20190;-55
2022/09/21 02:09:54;;;;;;;373.10;160.43;;;;;;;;;;4978038;28;20779;-55
2022/09/21 02:12:20;;;;;;;334.73;148.47;;;;;;;;;;4978717;28;20661;-55
2022/09/21 02:14:47;;;;;;;304.67;138.87;;;;;;;;;;4982473;28;20300;-55
2022/09/21 02:17:26;;;;;;;274.53;125.87;;;;;;;;;;4985608;28;20416;-55
2022/09/21 02:20:11;;;;;;;325.90;143.93;;;;;;;;;;4982710;28;20189;-55
2022/09/21 02:23:03;;;;;;;330.20;148.93;;;;;;;;;;4978732;28;20197;-55
2022/09/21 02:25:47;;;;;;;324.03;144.37;;;;;;;;;;4981506;28;20228;-55
2022/09/21 02:28:21;;;;;;;308.80;140.50;;;;;;;;;;4981100;28;20185;-55
2022/09/21 02:30:53;;;;;;;282.13;129.17;;;;;;;;;;4980910;28;23222;-55
2022/09/21 02:33:26;;;;;;;325.73;145.43;;;;;;;;;;4989073;28;20200;-55
2022/09/21 02:36:01;;;;;;;322.17;144.03;;;;;;;;;;4987472;28;20212;-55
2022/09/21 02:38:35;;;;;;;303.03;136.07;;;;;;;;;;4989153;28;20189;-55
2022/09/21 02:41:05;;;;;;;258.00;121.93;;;;;;;;;;4990443;28;20256;-55
2022/09/21 02:43:34;;;;;;;309.17;141.50;;;;;;;;;;4994651;28;20256;-55
2022/09/21 02:46:05;;;;;;;278.53;128.33;;;;;;;;;;4991643;28;20288;-55
2022/09/21 02:48:36;;;;;;;313.83;142.97;;;;;;;;;;4988709;28;20279;-55
2022/09/21 02:51:08;;;;;;;273.33;127.20;;;;;;;;;;4987593;28;20264;-55
2022/09/21 02:53:35;;;;;;;228.27;114.23;;;;;;;;;;4997746;28;20646;-55
2022/09/21 02:56:05;;;;;;;302.77;138.27;;;;;;;;;;4994925;28;20243;-55
2022/09/21 02:58:34;;;;;;;292.80;134.90;;;;;;;;;;4993194;28;20192;-55
2022/09/21 03:01:00;;;;;;;259.03;122.00;;;;;;;;;;4989378;28;20196;-55
2022/09/21 03:03:26;;;;;;;281.10;130.60;;;;;;;;;;4992466;28;20201;-55
2022/09/21 03:05:53;;;;;;;297.07;135.13;;;;;;;;;;4993743;28;20212;-55
2022/09/21 03:08:19;;;;;;;264.20;127.60;;;;;;;;;;4998074;28;20181;-55
2022/09/21 03:10:48;;;;;;;265.97;127.93;;;;;;;;;;4997639;28;20331;-55
2022/09/21 03:13:13;;;;;;;295.37;137.07;;;;;;;;;;4995887;28;20189;-55
2022/09/21 03:15:40;;;;;;;299.33;138.97;;;;;;;;;;4985749;28;20213;-55
2022/09/21 03:18:10;;;;;;;271.33;129.40;;;;;;;;;;4989598;28;20291;-55
2022/09/21 03:20:36;;;;;;;278.43;132.73;;;;;;;;;;4994266;28;20243;-55
2022/09/21 03:23:02;;;;;;;252.73;123.37;;;;;;;;;;4992579;28;20206;-56
2022/09/21 03:25:29;;;;;;;280.97;131.77;;;;;;;;;;4988486;28;20227;-55
2022/09/21 03:27:55;;;;;;;310.80;142.63;;;;;;;;;;4988464;28;20182;-55
2022/09/21 03:30:22;;;;;;;319.10;145.87;;;;;;;;;;4984309;28;20189;-55
2022/09/21 03:32:50;;;;;;;350.63;150.37;;;;;;;;;;4985261;28;20212;-55
2022/09/21 03:35:16;;;;;;;398.33;167.73;;;;;;;;;;4988216;28;20743;-55
2022/09/21 03:37:42;;;;;;;342.40;143.23;;;;;;;;;;4987287;28;20191;-55
2022/09/21 03:40:08;;;;;;;338.93;142.23;;;;;;;;;;4989566;28;20182;-55
2022/09/21 03:42:34;;;;;;;362.03;152.13;;;;;;;;;;4992239;28;20216;-55
2022/09/21 03:45:01;;;;;;;393.00;164.70;;;;;;;;;;4982830;28;20217;-55
2022/09/21 03:47:28;;;;;;;332.23;143.80;;;;;;;;;;4994747;28;20193;-55
2022/09/21 03:49:54;;;;;;;340.30;144.97;;;;;;;;;;4991533;28;20204;-55
2022/09/21 03:52:20;;;;;;;317.80;136.03;;;;;;;;;;4994232;28;20411;-55
2022/09/21 03:54:46;;;;;;;381.73;162.17;;;;;;;;;;4990480;28;20625;-55
2022/09/21 03:57:12;;;;;;;359.20;150.20;;;;;;;;;;4997358;28;21633;-55
2022/09/21 03:59:37;;;;;;;418.07;175.70;;;;;;;;;;4983936;28;20246;-55
2022/09/21 04:02:03;;;;;;;340.77;148.30;;;;;;;;;;4987483;28;20185;-55
2022/09/21 04:04:29;;;;;;;335.87;142.37;;;;;;;;;;4990192;28;20296;-55
2022/09/21 04:06:55;;;;;;;359.07;152.50;;;;;;;;;;4993971;28;20531;-55
2022/09/21 04:09:21;;;;;;;409.27;172.20;;;;;;;;;;4991660;28;20674;-55
2022/09/21 04:11:47;;;;;;;393.77;162.73;;;;;;;;;;4987572;28;20191;-55
2022/09/21 04:14:13;;;;;;;334.10;141.13;;;;;;;;;;4987942;28;20729;-55
2022/09/21 04:16:39;;;;;;;330.43;142.43;;;;;;;;;;4991776;28;20383;-55
2022/09/21 04:19:05;;;;;;;340.40;145.90;;;;;;;;;;4987151;28;20188;-55
2022/09/21 04:21:32;;;;;;;311.60;134.50;;;;;;;;;;4992831;28;20190;-55
2022/09/21 04:24:00;;;;;;;342.97;143.53;;;;;;;;;;4991187;28;20180;-55
2022/09/21 04:26:28;;;;;;;375.97;160.67;;;;;;;;;;4993716;28;20279;-55
2022/09/21 04:28:54;;;;;;;347.03;146.00;;;;;;;;;;4987682;28;20559;-55
2022/09/21 04:31:21;;;;;;;337.67;144.07;;;;;;;;;;4995283;28;20264;-55
2022/09/21 04:33:48;;;;;;;298.70;128.23;;;;;;;;;;4993513;28;20323;-55
2022/09/21 04:36:14;;;;;;;380.60;164.00;;;;;;;;;;4988626;28;20196;-55
2022/09/21 04:38:40;;;;;;;320.67;137.33;;;;;;;;;;4989371;28;20260;-55
2022/09/21 04:41:06;;;;;;;347.47;147.77;;;;;;;;;;4992946;28;20703;-55
2022/09/21 04:43:32;;;;;;;334.97;143.30;;;;;;;;;;4989776;28;20384;-55
2022/09/21 04:45:58;;;;;;;359.90;156.30;;;;;;;;;;4985381;28;20211;-55
2022/09/21 04:48:24;;;;;;;325.20;139.47;;;;;;;;;;4992755;28;20186;-55
2022/09/21 04:50:50;;;;;;;330.80;142.53;;;;;;;;;;4992558;28;20192;-55
2022/09/21 04:53:16;;;;;;;312.80;136.70;;;;;;;;;;4989565;28;20704;-55
2022/09/21 04:55:44;;;;;;;390.57;165.83;;;;;;;;;;4996944;28;20215;-55
2022/09/21 04:58:10;;;;;;;339.87;145.87;;;;;;;;;;4991041;28;20402;-55
2022/09/21 05:00:36;;;;;;;362.20;157.27;;;;;;;;;;4991618;28;20181;-55
2022/09/21 05:03:02;;;;;;;349.37;151.80;;;;;;;;;;4992305;28;20192;-55
2022/09/21 05:05:28;;;;;;;323.73;139.57;;;;;;;;;;4989663;28;20202;-55
2022/09/21 05:07:53;;;;;;;392.37;169.37;;;;;;;;;;4983579;28;20576;-55
2022/09/21 05:10:19;;;;;;;334.50;145.23;;;;;;;;;;4979751;28;20194;-55
2022/09/21 05:12:45;;;;;;;427.90;182.67;;;;;;;;;;4983264;28;20181;-55
2022/09/21 05:15:11;;;;;;;422.20;182.47;;;;;;;;;;4953205;28;20291;-55
2022/09/21 05:17:37;;;;;;;408.90;181.50;;;;;;;;;;4977043;28;20189;-55
2022/09/21 05:20:04;;;;;;;377.53;161.00;;;;;;;;;;4974613;28;20192;-55
2022/09/21 05:22:30;;;;;;;347.07;150.20;;;;;;;;;;4980370;28;20187;-55
2022/09/21 05:24:56;;;;;;;415.80;177.10;;;;;;;;;;4974238;28;20566;-55
2022/09/21 05:27:22;;;;;;;342.77;148.77;;;;;;;;;;4979827;28;20189;-55
2022/09/21 05:29:48;;;;;;;345.87;153.13;;;;;;;;;;4990290;28;20447;-54
2022/09/21 05:32:37;;;;;;;342.23;149.60;;;;;;;;;;4991285;28;20215;-54
2022/09/21 05:35:23;;;;;;;311.87;136.83;;;;;;;;;;4985124;28;20257;-54
2022/09/21 05:37:55;;;;;;;394.70;166.43;;;;;;;;;;4990543;28;20197;-54
2022/09/21 05:40:21;;;;;;;425.43;182.63;;;;;;;;;;4986497;28;20185;-54
2022/09/21 05:42:48;;;;;;;396.90;173.77;;;;;;;;;;4978505;28;20186;-54
2022/09/21 05:45:15;;;;;;;363.70;159.33;;;;;;;;;;4982615;28;20207;-54
2022/09/21 05:47:41;;;;;;;314.30;137.70;;;;;;;;;;4992743;28;20180;-54
2022/09/21 05:50:16;;;;;;;392.10;169.63;;;;;;;;;;4985054;28;20190;-54
2022/09/21 05:52:42;;;;;;;387.03;169.17;;;;;;;;;;4984653;28;20661;-54
2022/09/21 05:55:19;;;;;;;342.37;152.13;;;;;;;;;;4989353;28;20208;-54
2022/09/21 05:57:47;;;;;;;370.70;163.60;;;;;;;;;;4982535;28;20181;-54
2022/09/21 06:00:21;;;;;;;367.47;163.60;;;;;;;;;;4984000;28;20593;-54
2022/09/21 06:02:53;;;;;;;408.60;177.63;;;;;;;;;;4980959;28;21770;-54
2022/09/21 06:05:19;;;;;;;423.57;187.23;;;;;;;;;;4977754;28;20271;-54
2022/09/21 06:07:45;;;;;;;415.67;184.03;;;;;;;;;;4960161;28;20318;-54
2022/09/21 06:10:15;;;;;;;339.43;146.77;;;;;;;;;;4981197;28;20185;-54
2022/09/21 06:12:41;;;;;;;411.17;163.73;;;;;;;;;;4985105;28;20638;-54
2022/09/21 06:15:09;;;;;;;441.90;172.07;;;;;;;;;;4975291;28;20405;-55
2022/09/21 06:17:35;;;;;;;333.60;142.50;;;;;;;;;;4980358;28;20872;-55
2022/09/21 06:20:02;;;;;;;475.37;211.07;;;;;;;;;;4980845;28;20188;-55
2022/09/21 06:22:28;;;;;;;438.87;179.90;;;;;;;;;;4976781;28;20178;-55
2022/09/21 06:24:54;;;;;;;331.07;139.83;;;;;;;;;;4994260;28;20228;-55
2022/09/21 06:27:20;;;;;;;383.53;156.30;;;;;;;;;;4986321;28;20198;-55
2022/09/21 06:29:46;;;;;;;340.03;143.50;;;;;;;;;;4993349;28;20188;-55
2022/09/21 06:32:12;;;;;;;371.67;157.53;;;;;;;;;;4985878;28;20185;-54
2022/09/21 06:34:38;;;;;;;416.43;172.30;;;;;;;;;;4989680;28;20220;-55
2022/09/21 06:37:04;;;;;;;361.97;157.50;;;;;;;;;;4991321;28;20654;-55
2022/09/21 06:39:30;;;;;;;329.77;144.67;;;;;;;;;;4987505;28;20184;-55
2022/09/21 06:41:56;;;;;;;411.17;168.00;;;;;;;;;;4986996;28;20311;-54
2022/09/21 06:44:22;;;;;;;300.70;134.40;;;;;;;;;;4982901;28;20282;-55
2022/09/21 06:46:48;;;;;;;320.93;145.70;;;;;;;;;;4978574;28;20549;-54
2022/09/21 06:49:14;;;;;;;377.13;172.30;;;;;;;;;;4977783;28;20188;-54
2022/09/21 06:51:40;;;;;;;362.60;160.37;;;;;;;;;;4985167;28;20200;-54
2022/09/21 06:54:06;;;;;;;374.07;164.67;;;;;;;;;;4987181;28;20215;-54
2022/09/21 06:56:32;;;;;;;428.73;190.57;;;;;;;;;;4983627;28;20186;-54
2022/09/21 06:58:58;;;;;;;366.23;161.43;;;;;;;;;;4979605;28;20231;-54
2022/09/21 07:01:23;;;;;;;443.13;195.90;;;;;;;;;;4975756;28;20185;-54
2022/09/21 07:03:50;;;;;;;426.33;187.13;;;;;;;;;;4980653;28;20196;-54
2022/09/21 07:06:17;;;;;;;377.17;158.97;;;;;;;;;;4983548;28;20277;-53
2022/09/21 07:08:43;;;;;;;374.07;158.07;;;;;;;;;;4993270;28;20189;-52
2022/09/21 07:11:09;;;;;;;422.23;184.70;;;;;;;;;;4977137;28;20297;-53
2022/09/21 07:13:35;;;;;;;346.90;154.40;;;;;;;;;;4988301;28;20305;-53
2022/09/21 07:16:06;;;;;;;352.67;155.83;;;;;;;;;;4986493;28;20308;-53
2022/09/21 07:18:33;;;;;;;439.63;195.90;;;;;;;;;;4979690;28;20184;-53
2022/09/21 07:21:02;;;;;;;377.27;161.17;;;;;;;;;;4984868;28;20189;-53
2022/09/21 07:23:28;;;;;;;365.30;153.50;;;;;;;;;;4990064;28;21897;-54
2022/09/21 07:25:54;;;;;;;328.63;142.40;;;;;;;;;;5020983;22;20224;-69
2022/09/21 07:28:20;;;;;;;397.40;181.80;;;;;;;;;;5016931;28;20191;-74
2022/09/21 07:30:46;;;;;;;327.47;147.20;;;;;;;;;;5015133;28;20211;-71
2022/09/21 07:33:12;;;;;;;337.80;146.03;;;;;;;;;;5020487;28;20641;-70
2022/09/21 07:35:38;;;;;;;430.17;194.20;;;;;;;;;;5011764;28;20207;-71
2022/09/21 07:38:06;;;;;;;371.67;161.80;;;;;;;;;;5014101;28;20187;-71
2022/09/21 07:40:32;;;;;;;336.83;148.10;;;;;;;;;;5027225;28;20258;-70
2022/09/21 07:42:58;;;;;;;393.83;169.67;;;;;;;;;;5024107;28;20229;-71
2022/09/21 07:45:24;;;;;;;311.00;136.30;;;;;;;;;;5020219;28;20192;-71
2022/09/21 07:47:53;;;;;;;389.07;168.40;;;;;;;;;;5013802;28;20276;-71
2022/09/21 07:50:19;;;;;;;359.77;156.73;;;;;;;;;;5019186;28;20656;-71
2022/09/21 07:52:45;;;;;;;332.77;144.50;;;;;;;;;;5017853;28;20200;-72
2022/09/21 07:55:11;;;;;;;362.30;159.30;;;;;;;;;;5018113;28;20254;-71
2022/09/21 08:00:22;;;;;;;334.73;147.87;;;;;;;;;;5018079;28;21455;-71
2022/09/21 08:02:48;;;;;;;389.07;172.70;;;;;;;;;;5011649;28;20177;-71
2022/09/21 08:05:14;;;;;;;392.27;174.80;;;;;;;;;;5010833;28;20261;-71
2022/09/21 08:07:40;;;;;;;337.47;150.17;;;;;;;;;;5013844;28;20921;-71
2022/09/21 08:10:06;;;;;;;350.43;160.60;;;;;;;;;;5014036;28;20692;-71
2022/09/21 08:12:32;;;;;;;332.93;153.57;;;;;;;;;;5025913;28;20203;-71
2022/09/21 08:14:58;;;;;;;332.33;148.33;;;;;;;;;;5022245;28;20204;-71
2022/09/21 08:17:24;;;;;;;360.73;157.10;;;;;;;;;;5017253;28;20216;-71
2022/09/21 08:19:50;;;;;;;392.50;173.67;;;;;;;;;;5019389;28;20185;-71
2022/09/21 08:22:16;;;;;;;341.40;145.90;;;;;;;;;;5022190;28;20230;-71
2022/09/21 08:24:43;;;;;;;386.23;167.13;;;;;;;;;;5021784;28;20685;-71
2022/09/21 08:27:09;;;;;;;343.70;149.80;;;;;;;;;;5023053;28;20681;-71
2022/09/21 08:29:35;;;;;;;340.23;146.93;;;;;;;;;;5021737;28;20241;-71
2022/09/21 08:32:01;;;;;;;366.67;160.17;;;;;;;;;;5025833;28;20638;-71
2022/09/21 08:34:27;;;;;;;397.70;172.47;;;;;;;;;;5021419;28;20204;-71
2022/09/21 08:36:53;;;;;;;327.20;144.43;;;;;;;;;;5019727;28;20211;-71
2022/09/21 08:39:19;;;;;;;337.93;151.50;;;;;;;;;;5018704;28;20185;-71
2022/09/21 08:41:51;;;;;;;336.27;147.77;;;;;;;;;;5020661;28;20834;-71
2022/09/21 08:44:23;;;;;;;359.00;165.10;;;;;;;;;;5022508;28;20865;-71
2022/09/21 08:46:55;;;;;;;348.00;153.80;;;;;;;;;;5018302;28;20216;-71
2022/09/21 08:49:22;;;;;;;442.60;198.03;;;;;;;;;;5013784;28;20682;-71
2022/09/21 08:52:01;;;;;;;357.47;156.83;;;;;;;;;;5022992;28;20184;-71
2022/09/21 08:54:33;;;;;;;354.30;157.13;;;;;;;;;;5017276;28;20242;-71
2022/09/21 08:56:59;;;;;;;339.97;151.63;;;;;;;;;;5016388;28;20206;-71
2022/09/21 08:59:25;;;;;;;397.30;175.70;;;;;;;;;;5022038;28;20549;-71
2022/09/21 09:02:08;;;;;;;364.43;162.47;;;;;;;;;;5019262;28;20176;-70
2022/09/21 09:04:39;;;;;;;358.13;160.57;;;;;;;;;;5023159;28;20216;-71
2022/09/21 09:07:31;;;;;;;346.93;154.93;;;;;;;;;;5020289;28;20224;-73
2022/09/21 09:10:19;;;;;;;371.43;164.63;;;;;;;;;;4998302;28;20311;-71
2022/09/21 09:12:50;;;;;;;376.07;167.13;;;;;;;;;;5019159;28;20208;-71
2022/09/21 09:15:35;;;;;;;408.77;186.10;;;;;;;;;;5015750;28;20219;-72
2022/09/21 09:18:19;;;;;;;438.43;193.50;;;;;;;;;;5010424;28;20176;-71
2022/09/21 09:20:53;;;;;;;322.27;143.17;;;;;;;;;;5015194;28;20176;-71
2022/09/21 09:23:23;;;;;;;374.67;170.60;;;;;;;;;;5010712;28;20183;-75
2022/09/21 09:25:50;;;;;;;386.33;171.00;;;;;;;;;;5016143;28;20215;-71
2022/09/21 09:28:23;;;;;;;342.93;151.13;;;;;;;;;;5014881;28;20724;-71
2022/09/21 09:30:54;;;;;;;405.57;176.43;;;;;;;;;;5014631;28;20666;-73
2022/09/21 09:33:26;;;;;;;414.67;181.03;;;;;;;;;;5013037;28;20273;-74
2022/09/21 09:35:59;;;;;;;374.80;163.23;;;;;;;;;;5017887;28;20285;-73
2022/09/21 09:38:35;;;;;;;387.33;174.33;;;;;;;;;;5012236;28;20685;-64
2022/09/21 09:41:08;;;;;;;410.03;181.20;;;;;;;;;;5016575;28;20185;-63
2022/09/21 09:43:49;;;;;;;380.33;173.33;;;;;;;;;;5018172;28;20197;-64
2022/09/21 09:46:15;;;;;;;403.43;182.87;;;;;;;;;;5012929;28;20204;-65
2022/09/21 09:49:01;;;;;;;374.33;166.30;;;;;;;;;;5013836;28;20186;-65
2022/09/21 09:51:27;;;;;;;367.67;173.90;;;;;;;;;;4997731;28;20200;-66
2022/09/21 09:53:57;;;;;;;394.73;184.50;;;;;;;;;;5023008;28;20203;-68
2022/09/21 09:56:23;;;;;;;360.27;169.33;;;;;;;;;;5015357;28;20204;-65
2022/09/21 09:58:54;;;;;;;376.63;175.87;;;;;;;;;;5019841;28;20250;-73
2022/09/21 10:01:38;;;;;;;369.43;176.73;;;;;;;;;;5019256;28;20188;-71
2022/09/21 10:04:11;;;;;;;413.13;194.30;;;;;;;;;;5019208;28;20192;-71
2022/09/21 10:06:38;;;;;;;414.93;196.03;;;;;;;;;;5012925;28;20234;-72
2022/09/21 10:09:18;;;;;;;360.47;169.63;;;;;;;;;;5021105;28;20246;-71
2022/09/21 10:11:44;;;;;;;369.97;173.03;;;;;;;;;;5012992;28;20241;-71
2022/09/21 10:14:14;;;;;;;344.57;162.20;;;;;;;;;;5017302;28;20243;-71
2022/09/21 10:16:40;;;;;;;384.80;182.67;;;;;;;;;;5016389;28;20204;-70
2022/09/21 10:19:13;;;;;;;382.97;179.67;;;;;;;;;;5018710;28;20210;-73
2022/09/21 10:21:45;;;;;;;370.63;172.23;;;;;;;;;;5017383;28;20184;-75
2022/09/21 10:27:51;;;;;;;352.60;163.70;;;;;;;;;;5018880;28;20638;-52
2022/09/21 10:30:29;;;;;;;377.55;169.65;;;;;;;;;;5012411;28;20183;-52
2022/09/21 10:32:56;;;;;;;374.13;171.63;;;;;;;;;;5021290;28;20187;-52
2022/09/21 10:35:22;;;;;;;398.17;176.88;;;;;;;;;;5017772;28;20220;-52
2022/09/21 10:38:07;;;;;;;305.98;149.25;;;;;;;;;;5012787;28;20237;-52
2022/09/21 10:40:36;;;;;;;253.25;146.65;;;;;;;;;;5012269;28;20222;-52
2022/09/21 10:43:02;;;;;;;312.90;166.33;;;;;;;;;;5020594;28;20258;-52
2022/09/21 10:45:28;;;;;;;348.40;184.23;;;;;;;;;;5012678;28;20212;-52
2022/09/21 10:47:58;;;;;;;374.00;193.43;;;;;;;;;;5005504;28;20184;-52
2022/09/21 10:50:34;;;;;;;247.25;145.35;;;;;;;;;;5020826;28;20180;-52
2022/09/21 10:53:01;;;;;;;261.77;149.60;;;;;;;;;;5029700;28;20202;-52
2022/09/21 10:55:29;;;;;;;211.95;134.05;;;;;;;;;;5026345;28;20688;-52
2022/09/21 10:57:55;;;;;;;233.50;144.30;;;;;;;;;;5024254;28;20275;-52
2022/09/21 11:00:21;;;;;;;489.52;241.35;;;;;;;;;;5013298;28;20176;-52
2022/09/21 11:02:47;;;;;;;283.55;159.15;;;;;;;;;;5021500;28;20265;-52
2022/09/21 11:05:22;;;;;;;255.77;150.27;;;;;;;;;;5015067;28;20285;-52
2022/09/21 11:08:07;;;;;;;311.80;168.98;;;;;;;;;;5018168;28;20577;-52
2022/09/21 11:10:51;;;;;;;280.10;156.85;;;;;;;;;;5019457;28;20226;-52
2022/09/21 11:13:24;;;;;;;368.73;187.95;;;;;;;;;;5009611;28;20192;-52
2022/09/21 11:16:01;;;;;;;364.92;190.77;;;;;;;;;;5007656;28;20217;-52
2022/09/21 11:18:29;;;;;;;378.25;191.30;;;;;;;;;;5012963;28;20653;-52
2022/09/21 11:21:02;;;;;;;351.27;188.57;;;;;;;;;;5013330;28;20196;-54
2022/09/21 11:23:52;;;;;;;301.67;164.70;;;;;;;;;;5004054;28;20729;-53
2022/09/21 11:26:39;;;;;;;277.58;148.88;;;;;;;;;;5019052;28;20206;-52
2022/09/21 11:29:09;;;;;;;222.60;135.60;;;;;;;;;;5029806;28;20180;-54
2022/09/21 11:31:35;;;;;;;252.20;149.13;;;;;;;;;;5032528;28;20177;-54
2022/09/21 11:34:04;;;;;;;313.50;174.48;;;;;;;;;;5030537;28;20179;-55
2022/09/21 11:36:37;;;;;;;249.65;154.57;;;;;;;;;;5012730;28;20188;-52
2022/09/21 11:39:12;;;;;;;259.20;152.98;;;;;;;;;;5014013;28;20181;-52
2022/09/21 11:41:57;;;;;;;269.58;156.05;;;;;;;;;;5000850;28;20404;-52
2022/09/21 11:44:31;;;;;;;262.98;152.85;;;;;;;;;;5014440;28;20283;-51
2022/09/21 11:47:10;;;;;;;317.50;176.82;;;;;;;;;;5017145;28;20190;-51
2022/09/21 11:49:58;;;;;;;277.33;154.48;;;;;;;;;;5009511;28;20189;-52
2022/09/21 11:52:23;;;;;;;333.30;176.13;;;;;;;;;;5016111;28;20211;-51
2022/09/21 11:54:50;;;;;;;307.50;162.57;;;;;;;;;;5014177;28;20204;-52
2022/09/21 11:57:23;;;;;;;292.75;158.13;;;;;;;;;;5014723;28;20207;-54
2022/09/21 11:59:55;;;;;;;407.67;205.38;;;;;;;;;;5003896;28;20177;-55
2022/09/21 12:02:39;;;;;;;426.23;212.23;;;;;;;;;;4997082;28;20191;-55
2022/09/21 12:05:19;;;;;;;413.17;207.25;;;;;;;;;;5008615;28;20201;-54
2022/09/21 12:07:54;;;;;;;371.48;188.52;;;;;;;;;;4996681;28;20195;-54
2022/09/21 12:10:36;;;;;;;328.53;172.63;;;;;;;;;;5010908;28;20181;-55
2022/09/21 12:13:08;;;;;;;288.38;160.90;;;;;;;;;;5017710;28;20410;-54
2022/09/21 12:15:40;;;;;;;438.85;216.45;;;;;;;;;;4982790;28;20223;-55
2022/09/21 12:18:13;;;;;;;392.48;206.43;;;;;;;;;;5005130;28;21345;-55
2022/09/21 12:20:50;;;;;;;311.27;176.65;;;;;;;;;;5013648;28;20235;-54
2022/09/21 12:23:26;;;;;;;368.87;192.20;;;;;;;;;;5003200;28;20216;-55
2022/09/21 12:25:56;;;;;;;313.00;167.63;;;;;;;;;;5009188;28;20280;-52
2022/09/21 12:28:28;;;;;;;357.57;187.40;;;;;;;;;;5008810;28;20198;-54
2022/09/21 12:31:05;;;;;;;322.30;173.27;;;;;;;;;;5014036;28;20516;-54
2022/09/21 12:33:44;;;;;;;300.60;162.85;;;;;;;;;;5010641;28;20676;-53
2022/09/21 12:36:10;;;;;;;291.75;157.32;;;;;;;;;;5004058;28;20364;-53
2022/09/21 12:38:40;;;;;;;455.17;223.73;;;;;;;;;;4994874;28;20346;-53
2022/09/21 12:41:21;;;;;;;311.48;167.43;;;;;;;;;;5007513;28;20205;-53
2022/09/21 12:43:54;;;;;;;292.37;158.67;;;;;;;;;;5011548;28;20192;-54
2022/09/21 12:46:45;;;;;;;273.97;155.13;;;;;;;;;;5009945;28;20189;-54
2022/09/21 12:49:15;;;;;;;330.80;172.30;;;;;;;;;;5002048;28;20192;-53
2022/09/21 12:51:43;;;;;;;333.30;169.52;;;;;;;;;;5001852;28;20268;-53
2022/09/21 12:54:27;;;;;;;393.73;201.13;;;;;;;;;;5006022;28;20203;-53
2022/09/21 12:56:59;;;;;;;414.80;196.27;;;;;;;;;;4998265;28;20217;-53
2022/09/21 12:59:43;;;;;;;497.30;231.63;;;;;;;;;;5005445;28;20177;-53
2022/09/21 13:02:19;;;;;;;439.00;213.13;;;;;;;;;;5000872;28;20192;-54
2022/09/21 13:05:06;;;;;;;416.40;199.17;;;;;;;;;;5002774;28;20315;-53
2022/09/21 13:07:50;;;;;;;417.57;203.33;;;;;;;;;;5006362;28;20242;-54
2022/09/21 13:10:30;;;;;;;456.10;223.30;;;;;;;;;;5000169;28;20188;-54
2022/09/21 13:13:00;;;;;;;484.60;232.53;;;;;;;;;;5006736;28;20271;-53
2022/09/21 13:15:27;;;;;;;362.40;178.87;;;;;;;;;;5010218;28;20227;-53
2022/09/21 13:18:15;;;;;;;395.67;192.30;;;;;;;;;;5007812;28;20239;-53
2022/09/21 13:20:42;;;;;;;435.30;208.27;;;;;;;;;;5012282;28;20189;-53
2022/09/21 13:23:25;;;;;;;421.53;201.33;;;;;;;;;;5002926;28;20215;-53
2022/09/21 13:25:59;;;;;;;451.90;214.37;;;;;;;;;;5003083;28;20784;-53
2022/09/21 13:28:40;;;;;;;381.80;184.03;;;;;;;;;;5012585;28;20583;-54
2022/09/21 13:31:06;;;;;;;426.27;202.90;;;;;;;;;;5006557;28;22373;-54
2022/09/21 13:33:37;;;;;;;389.33;186.73;;;;;;;;;;5016181;28;20184;-53
2022/09/21 13:36:07;;;;;;;391.97;185.17;;;;;;;;;;5001100;28;20227;-54
2022/09/21 13:38:39;;;;;;;360.20;169.73;;;;;;;;;;5014639;28;20773;-53
2022/09/21 13:41:18;;;;;;;369.50;176.40;;;;;;;;;;5006884;28;20177;-54
2022/09/21 13:43:45;;;;;;;533.40;252.93;;;;;;;;;;4995015;28;20176;-54
2022/09/21 13:46:30;;;;;;;370.23;175.87;;;;;;;;;;5008757;28;20640;-54
2022/09/21 13:48:56;;;;;;;409.20;195.80;;;;;;;;;;4993396;28;20222;-54
2022/09/21 13:51:24;;;;;;;424.27;201.00;;;;;;;;;;5000230;28;20223;-54
2022/09/21 13:53:54;;;;;;;420.73;197.53;;;;;;;;;;5000755;28;20295;-54
2022/09/21 13:56:23;;;;;;;426.20;201.50;;;;;;;;;;4996098;28;20211;-54
2022/09/21 13:58:51;;;;;;;482.83;237.20;;;;;;;;;;4987960;28;20211;-54
2022/09/21 14:01:21;;;;;;;433.27;219.70;;;;;;;;;;4989804;28;20192;-53
2022/09/21 14:03:50;;;;;;;528.43;260.67;;;;;;;;;;4992309;28;20520;-53
2022/09/21 14:06:18;;;;;;;436.90;231.43;;;;;;;;;;4999119;28;20192;-54
2022/09/21 14:08:58;;;;;;;422.43;225.83;;;;;;;;;;5001638;28;20230;-54
2022/09/21 14:11:27;;;;;;;475.27;263.27;;;;;;;;;;5001361;28;20184;-54
2022/09/21 14:14:02;;;;;;;469.93;263.60;;;;;;;;;;4986649;28;20189;-54
2022/09/21 14:16:32;;;;;;;385.40;226.05;;;;;;;;;;4991085;28;20754;-54